sensor_id;sensor_type;location;lat;lon;timestamp;pressure;altitude;pressure_sealevel;temperature;humidity
12781;BME280;6454;43.304;24.344;2022-10-26T00:01:32;100660.28;;;17.20;62.34
12781;BME280;6454;43.304;24.344;2022-10-26T00:03:58;100655.44;;;17.17;62.67
12781;BME280;6454;43.304;24.344;2022-10-26T00:06:25;100659.94;;;17.21;62.69
12781;BME280;6454;43.304;24.344;2022-10-26T00:08:54;100660.75;;;17.22;62.60
12781;BME280;6454;43.304;24.344;2022-10-26T00:11:22;100667.53;;;17.24;62.74
12781;BME280;6454;43.304;24.344;2022-10-26T00:13:49;100660.75;;;17.22;63.18
12781;BME280;6454;43.304;24.344;2022-10-26T00:16:19;100604.84;;;16.84;63.05
12781;BME280;6454;43.304;24.344;2022-10-26T00:18:46;100660.28;;;17.20;62.85
12781;BME280;6454;43.304;24.344;2022-10-26T00:21:14;100620.16;;;16.85;62.91
12781;BME280;6454;43.304;24.344;2022-10-26T00:23:41;100674.13;;;17.15;62.87
12781;BME280;6454;43.304;24.344;2022-10-26T00:26:08;100677.34;;;17.17;62.75
12781;BME280;6454;43.304;24.344;2022-10-26T00:28:35;100676.34;;;17.13;63.13
12781;BME280;6454;43.304;24.344;2022-10-26T00:31:03;100672.31;;;17.10;63.02
12781;BME280;6454;43.304;24.344;2022-10-26T00:33:32;100683.94;;;17.07;63.53
12781;BME280;6454;43.304;24.344;2022-10-26T00:35:59;100687.16;;;17.09;63.51
12781;BME280;6454;43.304;24.344;2022-10-26T00:38:26;100680.81;;;17.00;63.77
12781;BME280;6454;43.304;24.344;2022-10-26T00:40:53;100686.56;;;16.90;64.21
12781;BME280;6454;43.304;24.344;2022-10-26T00:43:36;100681.22;;;16.77;64.88
12781;BME280;6454;43.304;24.344;2022-10-26T00:46:07;100690.31;;;16.63;65.52
12781;BME280;6454;43.304;24.344;2022-10-26T00:48:40;100676.00;;;16.44;65.92
12781;BME280;6454;43.304;24.344;2022-10-26T00:51:12;100671.75;;;16.38;65.30
12781;BME280;6454;43.304;24.344;2022-10-26T00:53:41;100681.97;;;16.46;64.75
12781;BME280;6454;43.304;24.344;2022-10-26T00:56:08;100669.78;;;16.30;64.67
12781;BME280;6454;43.304;24.344;2022-10-26T00:58:35;100680.59;;;16.13;65.71
12781;BME280;6454;43.304;24.344;2022-10-26T01:01:03;100693.72;;;16.02;66.16
12781;BME280;6454;43.304;24.344;2022-10-26T01:03:30;100675.28;;;15.94;66.48
12781;BME280;6454;43.304;24.344;2022-10-26T01:05:59;100692.41;;;16.00;66.86
12781;BME280;6454;43.304;24.344;2022-10-26T01:08:27;100699.59;;;15.96;66.77
12781;BME280;6454;43.304;24.344;2022-10-26T01:10:56;100689.97;;;15.98;66.02
12781;BME280;6454;43.304;24.344;2022-10-26T01:13:24;100676.06;;;15.73;66.89
12781;BME280;6454;43.304;24.344;2022-10-26T01:16:01;100695.50;;;15.71;67.85
12781;BME280;6454;43.304;24.344;2022-10-26T01:18:50;100696.44;;;15.53;68.88
12781;BME280;6454;43.304;24.344;2022-10-26T01:21:39;100693.72;;;15.39;68.46
12781;BME280;6454;43.304;24.344;2022-10-26T01:24:20;100693.91;;;15.29;69.24
12781;BME280;6454;43.304;24.344;2022-10-26T01:27:05;100698.16;;;15.22;69.20
12781;BME280;6454;43.304;24.344;2022-10-26T01:30:14;100689.66;;;15.10;69.44
12781;BME280;6454;43.304;24.344;2022-10-26T01:32:45;100687.09;;;14.86;70.14
12781;BME280;6454;43.304;24.344;2022-10-26T01:35:17;100687.38;;;14.71;70.96
12781;BME280;6454;43.304;24.344;2022-10-26T01:37:51;100616.25;;;14.16;71.15
12781;BME280;6454;43.304;24.344;2022-10-26T01:40:24;100687.56;;;14.61;71.07
12781;BME280;6454;43.304;24.344;2022-10-26T01:42:52;100695.16;;;14.64;71.53
12781;BME280;6454;43.304;24.344;2022-10-26T01:45:23;100690.50;;;14.51;71.26
12781;BME280;6454;43.304;24.344;2022-10-26T01:47:51;100686.38;;;14.35;72.00
12781;BME280;6454;43.304;24.344;2022-10-26T01:50:20;100613.66;;;13.74;72.17
12781;BME280;6454;43.304;24.344;2022-10-26T01:52:48;100679.06;;;14.11;73.07
12781;BME280;6454;43.304;24.344;2022-10-26T01:55:44;100683.50;;;14.07;73.40
12781;BME280;6454;43.304;24.344;2022-10-26T01:58:28;100688.38;;;14.10;73.12
12781;BME280;6454;43.304;24.344;2022-10-26T02:01:07;100689.28;;;14.06;72.73
12781;BME280;6454;43.304;24.344;2022-10-26T02:03:42;100697.31;;;13.97;72.66
12781;BME280;6454;43.304;24.344;2022-10-26T02:06:16;100681.16;;;13.82;73.08
12781;BME280;6454;43.304;24.344;2022-10-26T02:08:54;100684.84;;;13.73;72.96
12781;BME280;6454;43.304;24.344;2022-10-26T02:11:30;100672.53;;;13.56;73.09
12781;BME280;6454;43.304;24.344;2022-10-26T02:14:07;100693.84;;;13.73;72.94
12781;BME280;6454;43.304;24.344;2022-10-26T02:16:41;100695.25;;;13.71;73.19
12781;BME280;6454;43.304;24.344;2022-10-26T02:19:16;100700.53;;;13.62;73.45
12781;BME280;6454;43.304;24.344;2022-10-26T02:21:50;100707.16;;;13.56;73.67
12781;BME280;6454;43.304;24.344;2022-10-26T02:24:20;100703.38;;;13.52;74.21
12781;BME280;6454;43.304;24.344;2022-10-26T02:26:49;100699.91;;;13.46;73.82
12781;BME280;6454;43.304;24.344;2022-10-26T02:29:18;100706.19;;;13.47;73.39
12781;BME280;6454;43.304;24.344;2022-10-26T02:31:48;100680.25;;;13.31;74.26
12781;BME280;6454;43.304;24.344;2022-10-26T02:34:20;100704.69;;;13.36;74.41
12781;BME280;6454;43.304;24.344;2022-10-26T02:36:49;100711.13;;;13.21;75.31
12781;BME280;6454;43.304;24.344;2022-10-26T02:39:19;100703.28;;;13.15;75.93
12781;BME280;6454;43.304;24.344;2022-10-26T02:41:47;100680.09;;;12.93;75.92
12781;BME280;6454;43.304;24.344;2022-10-26T02:44:19;100711.16;;;13.16;76.05
12781;BME280;6454;43.304;24.344;2022-10-26T02:46:50;100720.09;;;13.22;75.45
12781;BME280;6454;43.304;24.344;2022-10-26T02:49:17;100718.13;;;13.04;75.76
12781;BME280;6454;43.304;24.344;2022-10-26T02:51:46;100651.19;;;12.45;75.68
12781;BME280;6454;43.304;24.344;2022-10-26T02:54:23;100654.66;;;12.51;75.83
12781;BME280;6454;43.304;24.344;2022-10-26T02:56:57;100714.53;;;12.79;76.10
12781;BME280;6454;43.304;24.344;2022-10-26T02:59:29;100720.03;;;12.74;76.08
12781;BME280;6454;43.304;24.344;2022-10-26T03:02:01;100698.06;;;12.66;76.36
12781;BME280;6454;43.304;24.344;2022-10-26T03:04:29;100702.19;;;12.63;76.63
12781;BME280;6454;43.304;24.344;2022-10-26T03:06:57;100714.09;;;12.67;77.20
12781;BME280;6454;43.304;24.344;2022-10-26T03:09:24;100528.06;;;11.38;77.13
12781;BME280;6454;43.304;24.344;2022-10-26T03:11:51;100723.47;;;12.56;77.17
12781;BME280;6454;43.304;24.344;2022-10-26T03:14:18;100726.47;;;12.55;77.30
12781;BME280;6454;43.304;24.344;2022-10-26T03:16:44;100726.75;;;12.53;76.41
12781;BME280;6454;43.304;24.344;2022-10-26T03:19:13;100729.22;;;12.50;76.27
12781;BME280;6454;43.304;24.344;2022-10-26T03:21:39;100734.53;;;12.36;77.28
12781;BME280;6454;43.304;24.344;2022-10-26T03:24:07;100733.41;;;12.37;77.88
12781;BME280;6454;43.304;24.344;2022-10-26T03:26:34;100733.72;;;12.36;78.45
12781;BME280;6454;43.304;24.344;2022-10-26T03:29:01;100748.66;;;12.38;80.01
12781;BME280;6454;43.304;24.344;2022-10-26T03:31:28;100738.78;;;12.47;80.64
12781;BME280;6454;43.304;24.344;2022-10-26T03:33:55;100735.94;;;12.62;80.65
12781;BME280;6454;43.304;24.344;2022-10-26T03:36:23;100740.66;;;12.80;81.58
12781;BME280;6454;43.304;24.344;2022-10-26T03:38:50;100739.50;;;12.86;80.66
12781;BME280;6454;43.304;24.344;2022-10-26T03:41:17;100743.28;;;12.90;80.60
12781;BME280;6454;43.304;24.344;2022-10-26T03:43:43;100749.22;;;12.98;80.13
12781;BME280;6454;43.304;24.344;2022-10-26T03:46:10;100725.09;;;12.86;79.53
12781;BME280;6454;43.304;24.344;2022-10-26T03:48:37;100738.19;;;13.13;79.33
12781;BME280;6454;43.304;24.344;2022-10-26T03:51:04;100750.44;;;13.15;78.17
12781;BME280;6454;43.304;24.344;2022-10-26T03:53:32;100746.06;;;13.14;78.11
12781;BME280;6454;43.304;24.344;2022-10-26T03:55:59;100750.47;;;13.10;77.77
12781;BME280;6454;43.304;24.344;2022-10-26T03:58:26;100752.94;;;13.07;77.49
12781;BME280;6454;43.304;24.344;2022-10-26T04:00:53;100748.59;;;13.06;76.93
12781;BME280;6454;43.304;24.344;2022-10-26T04:03:20;100750.50;;;13.05;76.84
12781;BME280;6454;43.304;24.344;2022-10-26T04:05:47;100753.28;;;13.00;76.96
12781;BME280;6454;43.304;24.344;2022-10-26T04:08:14;100756.81;;;13.01;76.57
12781;BME280;6454;43.304;24.344;2022-10-26T04:10:44;100758.03;;;12.84;77.69
12781;BME280;6454;43.304;24.344;2022-10-26T04:13:11;100755.38;;;12.79;77.52
12781;BME280;6454;43.304;24.344;2022-10-26T04:15:38;100758.66;;;12.76;77.46
12781;BME280;6454;43.304;24.344;2022-10-26T04:18:05;100760.81;;;12.79;77.39
12781;BME280;6454;43.304;24.344;2022-10-26T04:20:32;100762.94;;;12.87;77.37
12781;BME280;6454;43.304;24.344;2022-10-26T04:23:02;100728.31;;;12.59;77.24
12781;BME280;6454;43.304;24.344;2022-10-26T04:25:31;100708.09;;;12.37;77.71
12781;BME280;6454;43.304;24.344;2022-10-26T04:28:00;100766.06;;;12.71;77.69
12781;BME280;6454;43.304;24.344;2022-10-26T04:30:27;100765.81;;;12.67;77.70
12781;BME280;6454;43.304;24.344;2022-10-26T04:32:54;100759.03;;;12.65;77.77
12781;BME280;6454;43.304;24.344;2022-10-26T04:35:21;100756.28;;;12.70;77.69
12781;BME280;6454;43.304;24.344;2022-10-26T04:37:48;100757.09;;;12.70;77.45
12781;BME280;6454;43.304;24.344;2022-10-26T04:40:15;100751.16;;;12.63;77.05
12781;BME280;6454;43.304;24.344;2022-10-26T04:42:42;100752.69;;;12.46;77.39
12781;BME280;6454;43.304;24.344;2022-10-26T04:45:12;100769.22;;;12.49;77.84
12781;BME280;6454;43.304;24.344;2022-10-26T04:47:39;100703.47;;;12.03;77.68
12781;BME280;6454;43.304;24.344;2022-10-26T04:50:08;100777.97;;;12.46;77.50
12781;BME280;6454;43.304;24.344;2022-10-26T04:52:35;100774.41;;;12.51;77.95
12781;BME280;6454;43.304;24.344;2022-10-26T04:55:02;100778.50;;;12.48;77.21
12781;BME280;6454;43.304;24.344;2022-10-26T04:57:30;100788.13;;;12.36;77.81
12781;BME280;6454;43.304;24.344;2022-10-26T04:59:57;100778.69;;;12.23;78.72
12781;BME280;6454;43.304;24.344;2022-10-26T05:02:26;100794.94;;;12.33;78.98
12781;BME280;6454;43.304;24.344;2022-10-26T05:04:53;100799.25;;;12.34;79.01
12781;BME280;6454;43.304;24.344;2022-10-26T05:07:20;100778.72;;;12.18;78.59
12781;BME280;6454;43.304;24.344;2022-10-26T05:09:47;100808.28;;;12.29;78.56
12781;BME280;6454;43.304;24.344;2022-10-26T05:12:13;100810.53;;;12.17;79.08
12781;BME280;6454;43.304;24.344;2022-10-26T05:14:40;100790.78;;;11.97;79.79
12781;BME280;6454;43.304;24.344;2022-10-26T05:17:07;100817.38;;;12.10;79.91
12781;BME280;6454;43.304;24.344;2022-10-26T05:19:35;100826.88;;;12.12;80.45
12781;BME280;6454;43.304;24.344;2022-10-26T05:22:03;100828.75;;;12.17;79.48
12781;BME280;6454;43.304;24.344;2022-10-26T05:24:30;100829.00;;;12.20;79.29
12781;BME280;6454;43.304;24.344;2022-10-26T05:26:56;100823.91;;;12.14;79.19
12781;BME280;6454;43.304;24.344;2022-10-26T05:29:23;100832.59;;;12.11;80.09
12781;BME280;6454;43.304;24.344;2022-10-26T05:31:50;100835.59;;;12.09;79.90
12781;BME280;6454;43.304;24.344;2022-10-26T05:34:17;100842.13;;;12.13;80.42
12781;BME280;6454;43.304;24.344;2022-10-26T05:36:45;100849.97;;;12.20;79.82
12781;BME280;6454;43.304;24.344;2022-10-26T05:39:12;100848.28;;;12.24;79.44
12781;BME280;6454;43.304;24.344;2022-10-26T05:41:39;100846.13;;;12.26;79.64
12781;BME280;6454;43.304;24.344;2022-10-26T05:44:06;100860.22;;;12.33;79.61
12781;BME280;6454;43.304;24.344;2022-10-26T05:46:32;100855.31;;;12.35;79.61
12781;BME280;6454;43.304;24.344;2022-10-26T05:48:59;100857.47;;;12.38;80.03
12781;BME280;6454;43.304;24.344;2022-10-26T05:51:26;100860.94;;;12.54;80.31
12781;BME280;6454;43.304;24.344;2022-10-26T05:53:54;100860.09;;;12.58;81.54
12781;BME280;6454;43.304;24.344;2022-10-26T05:56:33;100874.47;;;12.64;81.47
12781;BME280;6454;43.304;24.344;2022-10-26T05:59:00;100870.91;;;12.68;81.43
12781;BME280;6454;43.304;24.344;2022-10-26T06:01:33;100868.16;;;12.73;81.75
12781;BME280;6454;43.304;24.344;2022-10-26T06:04:22;100873.56;;;12.78;81.95
12781;BME280;6454;43.304;24.344;2022-10-26T06:06:53;100878.03;;;12.98;83.09
12781;BME280;6454;43.304;24.344;2022-10-26T06:09:22;100844.09;;;12.85;82.51
12781;BME280;6454;43.304;24.344;2022-10-26T06:11:49;100875.75;;;13.15;81.63
12781;BME280;6454;43.304;24.344;2022-10-26T06:14:17;100877.03;;;13.23;81.50
12781;BME280;6454;43.304;24.344;2022-10-26T06:16:56;100874.75;;;13.35;81.00
12781;BME280;6454;43.304;24.344;2022-10-26T06:19:39;100822.34;;;13.14;80.86
12781;BME280;6454;43.304;24.344;2022-10-26T06:22:23;100881.44;;;13.71;81.04
12781;BME280;6454;43.304;24.344;2022-10-26T06:25:00;100873.63;;;13.88;80.51
12781;BME280;6454;43.304;24.344;2022-10-26T06:27:35;100871.50;;;14.04;80.25
12781;BME280;6454;43.304;24.344;2022-10-26T06:30:06;100880.03;;;14.21;80.06
12781;BME280;6454;43.304;24.344;2022-10-26T06:32:34;100826.31;;;13.98;79.39
12781;BME280;6454;43.304;24.344;2022-10-26T06:35:13;100871.56;;;14.65;78.38
12781;BME280;6454;43.304;24.344;2022-10-26T06:37:44;100846.97;;;14.65;77.28
12781;BME280;6454;43.304;24.344;2022-10-26T06:40:16;100883.03;;;14.99;76.12
12781;BME280;6454;43.304;24.344;2022-10-26T06:42:44;100885.28;;;15.11;76.21
12781;BME280;6454;43.304;24.344;2022-10-26T06:45:12;100879.28;;;15.27;75.15
12781;BME280;6454;43.304;24.344;2022-10-26T06:47:45;100878.88;;;15.53;73.99
12781;BME280;6454;43.304;24.344;2022-10-26T06:50:26;100884.56;;;15.70;73.25
12781;BME280;6454;43.304;24.344;2022-10-26T06:53:03;100880.22;;;15.82;72.83
12781;BME280;6454;43.304;24.344;2022-10-26T06:55:39;100886.16;;;15.98;71.79
12781;BME280;6454;43.304;24.344;2022-10-26T06:58:10;100883.34;;;16.03;72.00
12781;BME280;6454;43.304;24.344;2022-10-26T07:00:39;100892.47;;;16.12;72.23
12781;BME280;6454;43.304;24.344;2022-10-26T07:03:06;100892.75;;;16.24;71.79
12781;BME280;6454;43.304;24.344;2022-10-26T07:05:33;100856.19;;;16.06;71.34
12781;BME280;6454;43.304;24.344;2022-10-26T07:07:59;100901.53;;;16.48;70.72
12781;BME280;6454;43.304;24.344;2022-10-26T07:10:26;100909.28;;;16.60;69.84
12781;BME280;6454;43.304;24.344;2022-10-26T07:12:55;100906.59;;;16.68;69.66
12781;BME280;6454;43.304;24.344;2022-10-26T07:15:21;100909.06;;;16.70;69.90
12781;BME280;6454;43.304;24.344;2022-10-26T07:17:48;100909.56;;;16.72;69.37
12781;BME280;6454;43.304;24.344;2022-10-26T07:20:16;100899.28;;;16.78;69.28
12781;BME280;6454;43.304;24.344;2022-10-26T07:22:43;100890.75;;;16.79;69.22
12781;BME280;6454;43.304;24.344;2022-10-26T07:25:10;100909.75;;;16.98;68.61
12781;BME280;6454;43.304;24.344;2022-10-26T07:27:37;100899.97;;;17.05;68.05
12781;BME280;6454;43.304;24.344;2022-10-26T07:30:07;100898.25;;;17.09;68.15
12781;BME280;6454;43.304;24.344;2022-10-26T07:32:34;100903.41;;;17.11;68.30
12781;BME280;6454;43.304;24.344;2022-10-26T07:35:01;100897.78;;;17.16;68.25
12781;BME280;6454;43.304;24.344;2022-10-26T07:37:28;100901.22;;;17.21;68.17
12781;BME280;6454;43.304;24.344;2022-10-26T07:39:55;100902.28;;;17.34;67.23
12781;BME280;6454;43.304;24.344;2022-10-26T07:42:21;100899.09;;;17.40;67.14
12781;BME280;6454;43.304;24.344;2022-10-26T07:44:48;100900.75;;;17.50;66.47
12781;BME280;6454;43.304;24.344;2022-10-26T07:47:16;100894.47;;;17.50;65.82
12781;BME280;6454;43.304;24.344;2022-10-26T07:49:43;100897.72;;;17.52;66.45
12781;BME280;6454;43.304;24.344;2022-10-26T07:52:10;100880.16;;;17.53;66.07
12781;BME280;6454;43.304;24.344;2022-10-26T07:54:37;100897.63;;;17.65;65.68
12781;BME280;6454;43.304;24.344;2022-10-26T07:57:04;100888.78;;;17.68;65.13
12781;BME280;6454;43.304;24.344;2022-10-26T07:59:30;100884.47;;;17.76;65.27
12781;BME280;6454;43.304;24.344;2022-10-26T08:01:57;100891.94;;;17.84;65.05
12781;BME280;6454;43.304;24.344;2022-10-26T08:04:25;100887.56;;;17.83;63.54
12781;BME280;6454;43.304;24.344;2022-10-26T08:06:52;100887.88;;;17.81;63.77
12781;BME280;6454;43.304;24.344;2022-10-26T08:09:19;100886.78;;;17.82;63.77
12781;BME280;6454;43.304;24.344;2022-10-26T08:11:46;100883.56;;;17.89;64.35
12781;BME280;6454;43.304;24.344;2022-10-26T08:14:13;100887.75;;;17.95;63.67
12781;BME280;6454;43.304;24.344;2022-10-26T08:16:40;100883.28;;;18.08;63.42
12781;BME280;6454;43.304;24.344;2022-10-26T08:19:06;100885.72;;;18.18;63.14
12781;BME280;6454;43.304;24.344;2022-10-26T08:21:35;100881.72;;;18.24;62.11
12781;BME280;6454;43.304;24.344;2022-10-26T08:24:02;100889.81;;;18.29;62.10
12781;BME280;6454;43.304;24.344;2022-10-26T08:26:28;100890.97;;;18.36;61.78
12781;BME280;6454;43.304;24.344;2022-10-26T08:28:55;100892.25;;;18.39;60.11
12781;BME280;6454;43.304;24.344;2022-10-26T08:31:22;100821.91;;;18.03;58.90
12781;BME280;6454;43.304;24.344;2022-10-26T08:33:50;100847.31;;;18.26;59.15
12781;BME280;6454;43.304;24.344;2022-10-26T08:36:22;100890.72;;;18.63;58.75
12781;BME280;6454;43.304;24.344;2022-10-26T08:38:51;100875.84;;;18.64;58.73
12781;BME280;6454;43.304;24.344;2022-10-26T08:41:24;100878.91;;;18.72;57.63
12781;BME280;6454;43.304;24.344;2022-10-26T08:43:58;100883.59;;;18.80;57.89
12781;BME280;6454;43.304;24.344;2022-10-26T08:46:32;100881.34;;;18.82;57.13
12781;BME280;6454;43.304;24.344;2022-10-26T08:49:15;100878.09;;;18.88;56.93
12781;BME280;6454;43.304;24.344;2022-10-26T08:51:45;100881.16;;;18.95;56.84
12781;BME280;6454;43.304;24.344;2022-10-26T08:54:20;100751.19;;;18.18;55.88
12781;BME280;6454;43.304;24.344;2022-10-26T08:56:51;100887.31;;;19.09;56.38
12781;BME280;6454;43.304;24.344;2022-10-26T08:59:28;100835.09;;;18.84;55.93
12781;BME280;6454;43.304;24.344;2022-10-26T09:01:56;100776.91;;;18.56;55.88
12781;BME280;6454;43.304;24.344;2022-10-26T09:04:28;100898.00;;;19.37;55.18
12781;BME280;6454;43.304;24.344;2022-10-26T09:07:00;100893.59;;;19.44;55.55
12781;BME280;6454;43.304;24.344;2022-10-26T09:09:40;100884.66;;;19.47;54.75
12781;BME280;6454;43.304;24.344;2022-10-26T09:12:13;100895.66;;;19.56;55.18
12781;BME280;6454;43.304;24.344;2022-10-26T09:14:55;100886.59;;;19.64;54.32
12781;BME280;6454;43.304;24.344;2022-10-26T09:17:34;100888.63;;;19.75;53.91
12781;BME280;6454;43.304;24.344;2022-10-26T09:20:16;100879.09;;;19.73;54.34
12781;BME280;6454;43.304;24.344;2022-10-26T09:22:55;100883.88;;;19.84;53.06
12781;BME280;6454;43.304;24.344;2022-10-26T09:25:29;100857.53;;;19.75;51.86
12781;BME280;6454;43.304;24.344;2022-10-26T09:28:00;100878.19;;;19.89;51.86
12781;BME280;6454;43.304;24.344;2022-10-26T09:30:27;100873.31;;;19.95;50.96
12781;BME280;6454;43.304;24.344;2022-10-26T09:32:58;100879.00;;;19.99;50.78
12781;BME280;6454;43.304;24.344;2022-10-26T09:35:28;100876.84;;;20.04;50.23
12781;BME280;6454;43.304;24.344;2022-10-26T09:38:02;100884.13;;;20.09;50.38
12781;BME280;6454;43.304;24.344;2022-10-26T09:40:36;100881.50;;;20.12;50.63
12781;BME280;6454;43.304;24.344;2022-10-26T09:43:11;100882.13;;;20.18;50.05
12781;BME280;6454;43.304;24.344;2022-10-26T09:45:42;100888.91;;;20.20;48.98
12781;BME280;6454;43.304;24.344;2022-10-26T09:48:14;100869.94;;;20.27;48.29
12781;BME280;6454;43.304;24.344;2022-10-26T09:50:45;100868.81;;;20.28;48.22
12781;BME280;6454;43.304;24.344;2022-10-26T09:53:13;100871.38;;;20.33;48.83
12781;BME280;6454;43.304;24.344;2022-10-26T09:55:44;100869.69;;;20.41;49.09
12781;BME280;6454;43.304;24.344;2022-10-26T09:58:15;100862.72;;;20.43;49.23
12781;BME280;6454;43.304;24.344;2022-10-26T10:00:43;100841.16;;;20.37;48.31
12781;BME280;6454;43.304;24.344;2022-10-26T10:03:18;100857.41;;;20.59;48.48
12781;BME280;6454;43.304;24.344;2022-10-26T10:05:45;100861.56;;;20.65;47.66
12781;BME280;6454;43.304;24.344;2022-10-26T10:08:17;100856.31;;;20.72;47.65
12781;BME280;6454;43.304;24.344;2022-10-26T10:10:57;100850.69;;;20.69;47.84
12781;BME280;6454;43.304;24.344;2022-10-26T10:13:27;100868.88;;;20.82;46.90
12781;BME280;6454;43.304;24.344;2022-10-26T10:16:02;100813.56;;;20.45;45.98
12781;BME280;6454;43.304;24.344;2022-10-26T10:18:30;100852.94;;;20.87;46.17
12781;BME280;6454;43.304;24.344;2022-10-26T10:20:58;100843.19;;;20.90;46.05
12781;BME280;6454;43.304;24.344;2022-10-26T10:23:28;100799.03;;;20.57;45.56
12781;BME280;6454;43.304;24.344;2022-10-26T10:26:07;100840.88;;;20.92;45.27
12781;BME280;6454;43.304;24.344;2022-10-26T10:28:37;100837.25;;;21.00;45.07
12781;BME280;6454;43.304;24.344;2022-10-26T10:31:18;100837.38;;;21.03;45.50
12781;BME280;6454;43.304;24.344;2022-10-26T10:33:45;100796.84;;;20.83;45.16
12781;BME280;6454;43.304;24.344;2022-10-26T10:36:15;100832.59;;;21.12;45.11
12781;BME280;6454;43.304;24.344;2022-10-26T10:38:45;100832.19;;;21.23;44.63
12781;BME280;6454;43.304;24.344;2022-10-26T10:41:23;100812.16;;;21.13;44.17
12781;BME280;6454;43.304;24.344;2022-10-26T10:43:54;100804.00;;;21.17;44.29
12781;BME280;6454;43.304;24.344;2022-10-26T10:46:24;100829.78;;;21.33;44.54
12781;BME280;6454;43.304;24.344;2022-10-26T10:49:00;100816.47;;;21.35;45.02
12781;BME280;6454;43.304;24.344;2022-10-26T10:51:33;100828.47;;;21.51;44.81
12781;BME280;6454;43.304;24.344;2022-10-26T10:54:02;100639.56;;;20.35;42.37
12781;BME280;6454;43.304;24.344;2022-10-26T10:56:34;100799.91;;;21.35;42.49
12781;BME280;6454;43.304;24.344;2022-10-26T10:59:27;100819.47;;;21.54;43.43
12781;BME280;6454;43.304;24.344;2022-10-26T11:02:14;100829.16;;;21.60;42.78
12781;BME280;6454;43.304;24.344;2022-10-26T11:04:57;100826.38;;;21.60;42.75
12781;BME280;6454;43.304;24.344;2022-10-26T11:07:31;100817.19;;;21.68;41.98
12781;BME280;6454;43.304;24.344;2022-10-26T11:10:01;100807.41;;;21.71;43.20
12781;BME280;6454;43.304;24.344;2022-10-26T11:12:33;100800.50;;;21.65;43.02
12781;BME280;6454;43.304;24.344;2022-10-26T11:15:06;100804.66;;;21.83;43.24
12781;BME280;6454;43.304;24.344;2022-10-26T11:17:37;100806.75;;;21.86;42.59
12781;BME280;6454;43.304;24.344;2022-10-26T11:20:13;100811.94;;;21.88;42.86
12781;BME280;6454;43.304;24.344;2022-10-26T11:22:52;100806.03;;;21.89;43.20
12781;BME280;6454;43.304;24.344;2022-10-26T11:25:27;100812.06;;;21.91;42.67
12781;BME280;6454;43.304;24.344;2022-10-26T11:28:00;100816.53;;;21.96;41.65
12781;BME280;6454;43.304;24.344;2022-10-26T11:30:30;100815.59;;;21.92;41.59
12781;BME280;6454;43.304;24.344;2022-10-26T11:33:03;100804.66;;;21.95;41.42
12781;BME280;6454;43.304;24.344;2022-10-26T11:35:36;100807.19;;;22.00;41.30
12781;BME280;6454;43.304;24.344;2022-10-26T11:38:13;100813.41;;;21.97;41.64
12781;BME280;6454;43.304;24.344;2022-10-26T11:40:47;100804.44;;;22.00;41.30
12781;BME280;6454;43.304;24.344;2022-10-26T11:43:23;100810.88;;;22.04;40.86
12781;BME280;6454;43.304;24.344;2022-10-26T11:46:01;100705.38;;;21.50;41.07
12781;BME280;6454;43.304;24.344;2022-10-26T11:48:34;100804.78;;;22.11;41.07
12781;BME280;6454;43.304;24.344;2022-10-26T11:51:03;100717.09;;;21.59;41.46
12781;BME280;6454;43.304;24.344;2022-10-26T11:53:37;100793.50;;;22.04;41.09
12781;BME280;6454;43.304;24.344;2022-10-26T11:56:10;100799.09;;;22.19;41.44
12781;BME280;6454;43.304;24.344;2022-10-26T11:58:41;100792.75;;;22.19;41.31
12781;BME280;6454;43.304;24.344;2022-10-26T12:01:11;100799.63;;;22.37;40.02
12781;BME280;6454;43.304;24.344;2022-10-26T12:03:44;100762.50;;;22.10;39.61
12781;BME280;6454;43.304;24.344;2022-10-26T12:06:14;100799.63;;;22.37;38.90
12781;BME280;6454;43.304;24.344;2022-10-26T12:08:47;100793.47;;;22.28;39.05
12781;BME280;6454;43.304;24.344;2022-10-26T12:11:27;100749.41;;;21.95;40.18
12781;BME280;6454;43.304;24.344;2022-10-26T12:14:00;100752.28;;;21.87;40.10
12781;BME280;6454;43.304;24.344;2022-10-26T12:16:39;100792.19;;;22.25;40.41
12781;BME280;6454;43.304;24.344;2022-10-26T12:19:13;100796.91;;;22.25;40.60
12781;BME280;6454;43.304;24.344;2022-10-26T12:21:42;100730.19;;;21.87;38.20
12781;BME280;6454;43.304;24.344;2022-10-26T12:24:29;100797.13;;;22.32;38.82
12781;BME280;6454;43.304;24.344;2022-10-26T12:27:00;100783.66;;;22.30;39.17
12781;BME280;6454;43.304;24.344;2022-10-26T12:29:44;100776.88;;;22.28;38.16
12781;BME280;6454;43.304;24.344;2022-10-26T12:35:42;100787.00;;;22.36;38.89
12781;BME280;6454;43.304;24.344;2022-10-26T12:41:21;100789.28;;;22.34;38.99
12781;BME280;6454;43.304;24.344;2022-10-26T12:43:49;100787.06;;;22.39;38.80
12781;BME280;6454;43.304;24.344;2022-10-26T12:46:42;100783.16;;;22.40;38.50
12781;BME280;6454;43.304;24.344;2022-10-26T13:07:24;100793.50;;;22.56;36.35
12781;BME280;6454;43.304;24.344;2022-10-26T13:09:58;100747.97;;;22.25;36.36
12781;BME280;6454;43.304;24.344;2022-10-26T13:12:28;100793.63;;;22.47;37.01
12781;BME280;6454;43.304;24.344;2022-10-26T13:15:03;100799.34;;;22.54;36.78
12781;BME280;6454;43.304;24.344;2022-10-26T13:17:32;100793.00;;;22.54;37.04
12781;BME280;6454;43.304;24.344;2022-10-26T13:20:03;100797.41;;;22.55;37.29
12781;BME280;6454;43.304;24.344;2022-10-26T13:22:31;100789.72;;;22.48;37.24
12781;BME280;6454;43.304;24.344;2022-10-26T13:25:01;100796.13;;;22.52;37.38
12781;BME280;6454;43.304;24.344;2022-10-26T13:27:43;100793.88;;;22.42;36.64
12781;BME280;6454;43.304;24.344;2022-10-26T13:33:01;100795.13;;;22.44;36.31
12781;BME280;6454;43.304;24.344;2022-10-26T13:35:30;100791.09;;;22.42;36.56
12781;BME280;6454;43.304;24.344;2022-10-26T13:37:59;100765.13;;;22.19;36.38